sensor_id;sensor_type;location;lat;lon;timestamp;temperature;humidity
3312;DHT22;1668;49.648;8.570;2022-09-13T00:00:41;16.70;99.90
3312;DHT22;1668;49.648;8.570;2022-09-13T00:03:09;16.70;99.90
3312;DHT22;1668;49.648;8.570;2022-09-13T00:05:38;16.70;99.90
3312;DHT22;1668;49.648;8.570;2022-09-13T00:08:06;16.60;99.90
3312;DHT22;1668;49.648;8.570;2022-09-13T00:10:36;16.60;99.90
3312;DHT22;1668;49.648;8.570;2022-09-13T00:13:03;16.60;99.90
3312;DHT22;1668;49.648;8.570;2022-09-13T00:15:31;16.60;99.90
3312;DHT22;1668;49.648;8.570;2022-09-13T00:17:58;16.60;99.90
3312;DHT22;1668;49.648;8.570;2022-09-13T00:20:25;16.50;99.90
3312;DHT22;1668;49.648;8.570;2022-09-13T00:22:52;16.50;99.90
3312;DHT22;1668;49.648;8.570;2022-09-13T00:25:19;16.50;99.90
3312;DHT22;1668;49.648;8.570;2022-09-13T00:27:47;16.50;99.90
3312;DHT22;1668;49.648;8.570;2022-09-13T00:30:14;16.40;99.90
3312;DHT22;1668;49.648;8.570;2022-09-13T00:32:41;16.40;99.90
3312;DHT22;1668;49.648;8.570;2022-09-13T00:35:08;16.40;99.90
3312;DHT22;1668;49.648;8.570;2022-09-13T00:37:35;16.30;99.90
3312;DHT22;1668;49.648;8.570;2022-09-13T00:40:03;16.30;99.90
3312;DHT22;1668;49.648;8.570;2022-09-13T00:42:31;16.30;99.90
3312;DHT22;1668;49.648;8.570;2022-09-13T00:45:01;16.30;99.90
3312;DHT22;1668;49.648;8.570;2022-09-13T00:47:34;16.20;99.90
3312;DHT22;1668;49.648;8.570;2022-09-13T00:50:08;16.20;99.90
3312;DHT22;1668;49.648;8.570;2022-09-13T00:52:37;16.20;99.90
3312;DHT22;1668;49.648;8.570;2022-09-13T00:55:09;16.10;99.90
3312;DHT22;1668;49.648;8.570;2022-09-13T00:57:38;16.10;99.90
3312;DHT22;1668;49.648;8.570;2022-09-13T01:00:09;16.10;99.90
3312;DHT22;1668;49.648;8.570;2022-09-13T01:02:39;16.00;99.90
3312;DHT22;1668;49.648;8.570;2022-09-13T01:05:07;16.00;99.90
3312;DHT22;1668;49.648;8.570;2022-09-13T01:07:34;16.00;99.90
3312;DHT22;1668;49.648;8.570;2022-09-13T01:10:03;16.00;99.90
3312;DHT22;1668;49.648;8.570;2022-09-13T01:12:35;16.00;99.90
3312;DHT22;1668;49.648;8.570;2022-09-13T01:15:05;15.90;99.90
3312;DHT22;1668;49.648;8.570;2022-09-13T01:17:34;15.90;99.90
3312;DHT22;1668;49.648;8.570;2022-09-13T01:20:05;15.90;99.90
3312;DHT22;1668;49.648;8.570;2022-09-13T01:23:00;15.90;99.90
3312;DHT22;1668;49.648;8.570;2022-09-13T01:29:19;15.80;99.90
3312;DHT22;1668;49.648;8.570;2022-09-13T01:31:59;15.80;99.90
3312;DHT22;1668;49.648;8.570;2022-09-13T01:34:35;15.70;99.90
3312;DHT22;1668;49.648;8.570;2022-09-13T01:37:28;15.70;99.90
3312;DHT22;1668;49.648;8.570;2022-09-13T01:40:06;15.70;99.90
3312;DHT22;1668;49.648;8.570;2022-09-13T01:42:52;15.60;99.90
3312;DHT22;1668;49.648;8.570;2022-09-13T01:45:27;15.60;99.90
3312;DHT22;1668;49.648;8.570;2022-09-13T01:48:00;15.60;99.90
3312;DHT22;1668;49.648;8.570;2022-09-13T01:50:38;15.50;99.90
3312;DHT22;1668;49.648;8.570;2022-09-13T01:53:14;15.40;99.90
3312;DHT22;1668;49.648;8.570;2022-09-13T01:55:47;15.40;99.90
3312;DHT22;1668;49.648;8.570;2022-09-13T01:58:20;15.40;99.90
3312;DHT22;1668;49.648;8.570;2022-09-13T02:00:56;15.40;99.90
3312;DHT22;1668;49.648;8.570;2022-09-13T02:03:34;15.40;99.90
3312;DHT22;1668;49.648;8.570;2022-09-13T02:06:05;15.40;99.90
3312;DHT22;1668;49.648;8.570;2022-09-13T02:08:38;15.40;99.90
3312;DHT22;1668;49.648;8.570;2022-09-13T02:11:09;15.30;99.90
3312;DHT22;1668;49.648;8.570;2022-09-13T02:13:39;15.30;99.90
3312;DHT22;1668;49.648;8.570;2022-09-13T02:16:10;15.30;99.90
3312;DHT22;1668;49.648;8.570;2022-09-13T02:18:41;15.30;99.90
3312;DHT22;1668;49.648;8.570;2022-09-13T02:21:11;15.20;99.90
3312;DHT22;1668;49.648;8.570;2022-09-13T02:23:43;15.20;99.90
3312;DHT22;1668;49.648;8.570;2022-09-13T02:26:13;15.10;99.90
3312;DHT22;1668;49.648;8.570;2022-09-13T02:28:43;15.10;99.90
3312;DHT22;1668;49.648;8.570;2022-09-13T02:31:12;15.00;99.90
3312;DHT22;1668;49.648;8.570;2022-09-13T02:33:44;15.00;99.90
3312;DHT22;1668;49.648;8.570;2022-09-13T02:36:17;15.00;99.90
3312;DHT22;1668;49.648;8.570;2022-09-13T02:38:50;15.00;99.90
3312;DHT22;1668;49.648;8.570;2022-09-13T02:41:24;15.00;99.90
3312;DHT22;1668;49.648;8.570;2022-09-13T02:43:56;15.00;99.90
3312;DHT22;1668;49.648;8.570;2022-09-13T02:46:36;15.00;99.90
3312;DHT22;1668;49.648;8.570;2022-09-13T02:49:12;15.00;99.90
3312;DHT22;1668;49.648;8.570;2022-09-13T02:51:44;15.00;99.90
3312;DHT22;1668;49.648;8.570;2022-09-13T02:54:23;15.00;99.90
3312;DHT22;1668;49.648;8.570;2022-09-13T02:56:55;15.00;99.90
3312;DHT22;1668;49.648;8.570;2022-09-13T02:59:24;15.00;99.90
3312;DHT22;1668;49.648;8.570;2022-09-13T03:01:53;14.90;99.90
3312;DHT22;1668;49.648;8.570;2022-09-13T03:04:24;14.90;99.90
3312;DHT22;1668;49.648;8.570;2022-09-13T03:06:51;14.90;99.90
3312;DHT22;1668;49.648;8.570;2022-09-13T03:09:19;14.80;99.90
3312;DHT22;1668;49.648;8.570;2022-09-13T03:14:44;14.80;99.90
3312;DHT22;1668;49.648;8.570;2022-09-13T03:17:18;14.80;99.90
3312;DHT22;1668;49.648;8.570;2022-09-13T03:20:02;14.80;99.90
3312;DHT22;1668;49.648;8.570;2022-09-13T03:22:51;14.80;99.90
3312;DHT22;1668;49.648;8.570;2022-09-13T03:25:25;14.80;99.90
3312;DHT22;1668;49.648;8.570;2022-09-13T03:28:01;14.70;99.90
3312;DHT22;1668;49.648;8.570;2022-09-13T03:30:29;14.70;99.90
3312;DHT22;1668;49.648;8.570;2022-09-13T03:33:02;14.70;99.90
3312;DHT22;1668;49.648;8.570;2022-09-13T03:35:37;14.70;99.90
3312;DHT22;1668;49.648;8.570;2022-09-13T03:38:07;14.70;99.90
3312;DHT22;1668;49.648;8.570;2022-09-13T03:40:40;14.70;99.90
3312;DHT22;1668;49.648;8.570;2022-09-13T03:43:12;14.70;99.90
3312;DHT22;1668;49.648;8.570;2022-09-13T03:45:55;14.60;99.90
3312;DHT22;1668;49.648;8.570;2022-09-13T03:48:24;14.70;99.90
3312;DHT22;1668;49.648;8.570;2022-09-13T03:50:53;14.60;99.90
3312;DHT22;1668;49.648;8.570;2022-09-13T03:53:22;14.60;99.90
3312;DHT22;1668;49.648;8.570;2022-09-13T03:55:50;14.70;99.90
3312;DHT22;1668;49.648;8.570;2022-09-13T03:58:19;14.70;99.90
3312;DHT22;1668;49.648;8.570;2022-09-13T04:00:46;14.60;99.90
3312;DHT22;1668;49.648;8.570;2022-09-13T04:03:14;14.70;99.90
3312;DHT22;1668;49.648;8.570;2022-09-13T04:05:41;14.60;99.90
3312;DHT22;1668;49.648;8.570;2022-09-13T04:08:09;14.60;99.90
3312;DHT22;1668;49.648;8.570;2022-09-13T04:10:36;14.60;99.90
3312;DHT22;1668;49.648;8.570;2022-09-13T04:13:03;14.60;99.90
3312;DHT22;1668;49.648;8.570;2022-09-13T04:15:30;14.60;99.90
3312;DHT22;1668;49.648;8.570;2022-09-13T04:17:57;14.60;99.90
3312;DHT22;1668;49.648;8.570;2022-09-13T04:20:25;14.60;99.90
3312;DHT22;1668;49.648;8.570;2022-09-13T04:22:55;14.60;99.90
3312;DHT22;1668;49.648;8.570;2022-09-13T04:25:23;14.60;99.90
3312;DHT22;1668;49.648;8.570;2022-09-13T04:27:53;14.60;99.90
3312;DHT22;1668;49.648;8.570;2022-09-13T04:30:20;14.60;99.90
3312;DHT22;1668;49.648;8.570;2022-09-13T04:32:47;14.60;99.90
3312;DHT22;1668;49.648;8.570;2022-09-13T04:35:15;14.60;99.90
3312;DHT22;1668;49.648;8.570;2022-09-13T04:37:44;14.60;99.90
3312;DHT22;1668;49.648;8.570;2022-09-13T04:40:12;14.60;99.90
3312;DHT22;1668;49.648;8.570;2022-09-13T04:42:43;14.60;99.90
3312;DHT22;1668;49.648;8.570;2022-09-13T04:45:10;14.60;99.90
3312;DHT22;1668;49.648;8.570;2022-09-13T04:47:38;14.50;99.90
3312;DHT22;1668;49.648;8.570;2022-09-13T04:50:05;14.60;99.90
3312;DHT22;1668;49.648;8.570;2022-09-13T04:52:32;14.60;99.90
3312;DHT22;1668;49.648;8.570;2022-09-13T04:54:59;14.60;99.90
3312;DHT22;1668;49.648;8.570;2022-09-13T04:57:26;14.50;99.90
3312;DHT22;1668;49.648;8.570;2022-09-13T04:59:54;14.60;99.90
3312;DHT22;1668;49.648;8.570;2022-09-13T05:02:21;14.60;99.90
3312;DHT22;1668;49.648;8.570;2022-09-13T05:04:48;14.60;99.90
3312;DHT22;1668;49.648;8.570;2022-09-13T05:07:15;14.60;99.90
3312;DHT22;1668;49.648;8.570;2022-09-13T05:09:42;14.60;99.90
3312;DHT22;1668;49.648;8.570;2022-09-13T05:12:09;14.60;99.90
3312;DHT22;1668;49.648;8.570;2022-09-13T05:14:36;14.60;99.90
3312;DHT22;1668;49.648;8.570;2022-09-13T05:17:04;14.60;99.90
3312;DHT22;1668;49.648;8.570;2022-09-13T05:19:31;14.60;99.90
3312;DHT22;1668;49.648;8.570;2022-09-13T05:21:59;14.60;99.90
3312;DHT22;1668;49.648;8.570;2022-09-13T05:24:27;14.60;99.90
3312;DHT22;1668;49.648;8.570;2022-09-13T05:26:54;14.60;99.90
3312;DHT22;1668;49.648;8.570;2022-09-13T05:29:21;14.60;99.90
3312;DHT22;1668;49.648;8.570;2022-09-13T05:31:48;14.60;99.90
3312;DHT22;1668;49.648;8.570;2022-09-13T05:34:16;14.60;99.90
3312;DHT22;1668;49.648;8.570;2022-09-13T05:36:44;14.70;99.90
3312;DHT22;1668;49.648;8.570;2022-09-13T05:39:13;14.70;99.90
3312;DHT22;1668;49.648;8.570;2022-09-13T05:41:42;14.70;99.90
3312;DHT22;1668;49.648;8.570;2022-09-13T05:44:09;14.70;99.90
3312;DHT22;1668;49.648;8.570;2022-09-13T05:46:36;14.70;99.90
3312;DHT22;1668;49.648;8.570;2022-09-13T05:49:03;14.70;99.90
3312;DHT22;1668;49.648;8.570;2022-09-13T05:51:31;14.70;99.90
3312;DHT22;1668;49.648;8.570;2022-09-13T05:53:58;14.80;99.90
3312;DHT22;1668;49.648;8.570;2022-09-13T05:56:26;14.80;99.90
3312;DHT22;1668;49.648;8.570;2022-09-13T05:58:53;14.80;99.90
3312;DHT22;1668;49.648;8.570;2022-09-13T06:01:22;14.80;99.90
3312;DHT22;1668;49.648;8.570;2022-09-13T06:03:50;14.80;99.90
3312;DHT22;1668;49.648;8.570;2022-09-13T06:06:18;14.80;99.90
3312;DHT22;1668;49.648;8.570;2022-09-13T06:08:46;14.80;99.90
3312;DHT22;1668;49.648;8.570;2022-09-13T06:11:14;14.80;99.90
3312;DHT22;1668;49.648;8.570;2022-09-13T06:13:41;14.80;99.90
3312;DHT22;1668;49.648;8.570;2022-09-13T06:16:10;14.80;99.90
3312;DHT22;1668;49.648;8.570;2022-09-13T06:18:38;14.90;99.90
3312;DHT22;1668;49.648;8.570;2022-09-13T06:21:07;14.90;99.90
3312;DHT22;1668;49.648;8.570;2022-09-13T06:23:35;14.90;99.90
3312;DHT22;1668;49.648;8.570;2022-09-13T06:26:04;14.90;99.90
3312;DHT22;1668;49.648;8.570;2022-09-13T06:28:33;15.00;99.90
3312;DHT22;1668;49.648;8.570;2022-09-13T06:31:01;15.00;99.90
3312;DHT22;1668;49.648;8.570;2022-09-13T06:33:29;15.00;99.90
3312;DHT22;1668;49.648;8.570;2022-09-13T06:35:59;15.00;99.90
3312;DHT22;1668;49.648;8.570;2022-09-13T06:38:27;15.00;99.90
3312;DHT22;1668;49.648;8.570;2022-09-13T06:41:06;15.00;99.90
3312;DHT22;1668;49.648;8.570;2022-09-13T06:43:38;15.00;99.90
3312;DHT22;1668;49.648;8.570;2022-09-13T06:46:08;15.00;99.90
3312;DHT22;1668;49.648;8.570;2022-09-13T06:48:36;15.00;99.90
3312;DHT22;1668;49.648;8.570;2022-09-13T06:51:06;15.10;99.90
3312;DHT22;1668;49.648;8.570;2022-09-13T06:53:34;15.10;99.90
3312;DHT22;1668;49.648;8.570;2022-09-13T06:56:05;15.10;99.90
3312;DHT22;1668;49.648;8.570;2022-09-13T06:58:33;15.20;99.90
3312;DHT22;1668;49.648;8.570;2022-09-13T07:01:09;15.20;99.90
3312;DHT22;1668;49.648;8.570;2022-09-13T07:03:38;15.20;99.90
3312;DHT22;1668;49.648;8.570;2022-09-13T07:06:07;15.20;99.90
3312;DHT22;1668;49.648;8.570;2022-09-13T07:08:34;15.20;99.90
3312;DHT22;1668;49.648;8.570;2022-09-13T07:11:01;15.30;99.90
3312;DHT22;1668;49.648;8.570;2022-09-13T07:13:30;15.30;99.90
3312;DHT22;1668;49.648;8.570;2022-09-13T07:16:00;15.40;99.90
3312;DHT22;1668;49.648;8.570;2022-09-13T07:18:27;15.40;99.90
3312;DHT22;1668;49.648;8.570;2022-09-13T07:20:58;15.40;99.90
3312;DHT22;1668;49.648;8.570;2022-09-13T07:23:26;15.50;99.90
3312;DHT22;1668;49.648;8.570;2022-09-13T07:25:54;15.50;99.90
3312;DHT22;1668;49.648;8.570;2022-09-13T07:28:27;15.50;99.90
3312;DHT22;1668;49.648;8.570;2022-09-13T07:30:55;15.50;99.90
3312;DHT22;1668;49.648;8.570;2022-09-13T07:33:24;15.60;99.90
3312;DHT22;1668;49.648;8.570;2022-09-13T07:35:55;15.70;99.90
3312;DHT22;1668;49.648;8.570;2022-09-13T07:38:22;15.70;99.90
3312;DHT22;1668;49.648;8.570;2022-09-13T07:40:53;15.80;99.90
3312;DHT22;1668;49.648;8.570;2022-09-13T07:43:21;15.80;99.90
3312;DHT22;1668;49.648;8.570;2022-09-13T07:45:47;15.80;99.90
3312;DHT22;1668;49.648;8.570;2022-09-13T07:48:24;15.80;99.90
3312;DHT22;1668;49.648;8.570;2022-09-13T07:51:00;15.90;99.90
3312;DHT22;1668;49.648;8.570;2022-09-13T07:53:27;15.90;99.90
3312;DHT22;1668;49.648;8.570;2022-09-13T07:55:59;15.90;99.90
3312;DHT22;1668;49.648;8.570;2022-09-13T07:58:26;15.90;99.90
3312;DHT22;1668;49.648;8.570;2022-09-13T08:00:53;16.00;99.90
3312;DHT22;1668;49.648;8.570;2022-09-13T08:03:20;16.00;99.90
3312;DHT22;1668;49.648;8.570;2022-09-13T08:05:48;16.00;99.90
3312;DHT22;1668;49.648;8.570;2022-09-13T08:08:15;16.10;99.90
3312;DHT22;1668;49.648;8.570;2022-09-13T08:10:42;16.10;99.90
3312;DHT22;1668;49.648;8.570;2022-09-13T08:13:08;16.10;99.90
3312;DHT22;1668;49.648;8.570;2022-09-13T08:15:35;16.10;99.90
3312;DHT22;1668;49.648;8.570;2022-09-13T08:18:04;16.10;99.90
3312;DHT22;1668;49.648;8.570;2022-09-13T08:20:35;16.20;99.90
3312;DHT22;1668;49.648;8.570;2022-09-13T08:23:04;16.30;99.90
3312;DHT22;1668;49.648;8.570;2022-09-13T08:25:31;16.30;99.90
3312;DHT22;1668;49.648;8.570;2022-09-13T08:27:59;16.40;99.90
3312;DHT22;1668;49.648;8.570;2022-09-13T08:30:26;16.40;99.90
3312;DHT22;1668;49.648;8.570;2022-09-13T08:32:58;16.50;99.90
3312;DHT22;1668;49.648;8.570;2022-09-13T08:35:26;16.50;99.90
3312;DHT22;1668;49.648;8.570;2022-09-13T08:37:53;16.60;99.90
3312;DHT22;1668;49.648;8.570;2022-09-13T08:40:23;16.60;99.90
3312;DHT22;1668;49.648;8.570;2022-09-13T08:42:57;16.70;99.90
3312;DHT22;1668;49.648;8.570;2022-09-13T08:45:27;16.70;99.90
3312;DHT22;1668;49.648;8.570;2022-09-13T08:47:57;16.80;99.90
3312;DHT22;1668;49.648;8.570;2022-09-13T08:50:30;16.80;99.90
3312;DHT22;1668;49.648;8.570;2022-09-13T08:53:05;16.90;99.90
3312;DHT22;1668;49.648;8.570;2022-09-13T08:55:46;16.90;99.90
3312;DHT22;1668;49.648;8.570;2022-09-13T08:58:32;17.10;99.90
3312;DHT22;1668;49.648;8.570;2022-09-13T09:01:04;17.20;99.90
3312;DHT22;1668;49.648;8.570;2022-09-13T09:03:40;17.20;99.90
3312;DHT22;1668;49.648;8.570;2022-09-13T09:06:11;17.30;99.90
3312;DHT22;1668;49.648;8.570;2022-09-13T09:08:43;17.30;99.90
3312;DHT22;1668;49.648;8.570;2022-09-13T09:11:20;17.40;99.90
3312;DHT22;1668;49.648;8.570;2022-09-13T09:13:51;17.50;99.90
3312;DHT22;1668;49.648;8.570;2022-09-13T09:16:29;17.50;99.90
3312;DHT22;1668;49.648;8.570;2022-09-13T09:19:05;17.50;99.90
3312;DHT22;1668;49.648;8.570;2022-09-13T09:21:34;17.70;99.90
3312;DHT22;1668;49.648;8.570;2022-09-13T09:24:02;17.70;99.90
3312;DHT22;1668;49.648;8.570;2022-09-13T09:26:31;17.80;99.90
3312;DHT22;1668;49.648;8.570;2022-09-13T09:29:00;17.80;99.90
3312;DHT22;1668;49.648;8.570;2022-09-13T09:31:34;17.90;99.90
3312;DHT22;1668;49.648;8.570;2022-09-13T09:34:11;17.90;99.90
3312;DHT22;1668;49.648;8.570;2022-09-13T09:36:39;18.00;99.90
3312;DHT22;1668;49.648;8.570;2022-09-13T09:39:11;18.00;99.90
3312;DHT22;1668;49.648;8.570;2022-09-13T09:41:40;18.10;99.90
3312;DHT22;1668;49.648;8.570;2022-09-13T09:44:16;18.10;99.90
3312;DHT22;1668;49.648;8.570;2022-09-13T09:46:45;18.20;99.90
3312;DHT22;1668;49.648;8.570;2022-09-13T09:49:16;18.30;99.90
3312;DHT22;1668;49.648;8.570;2022-09-13T09:52:03;18.30;99.90
3312;DHT22;1668;49.648;8.570;2022-09-13T09:54:32;18.40;99.90
3312;DHT22;1668;49.648;8.570;2022-09-13T09:57:02;18.50;99.90
3312;DHT22;1668;49.648;8.570;2022-09-13T09:59:32;18.60;99.90
3312;DHT22;1668;49.648;8.570;2022-09-13T10:02:00;18.60;99.90
3312;DHT22;1668;49.648;8.570;2022-09-13T10:04:32;18.70;99.90
3312;DHT22;1668;49.648;8.570;2022-09-13T10:07:20;18.80;99.90
3312;DHT22;1668;49.648;8.570;2022-09-13T10:09:56;18.90;99.90
3312;DHT22;1668;49.648;8.570;2022-09-13T10:12:27;19.00;99.90
3312;DHT22;1668;49.648;8.570;2022-09-13T10:15:03;19.00;99.90
3312;DHT22;1668;49.648;8.570;2022-09-13T10:17:31;19.10;99.90
3312;DHT22;1668;49.648;8.570;2022-09-13T10:19:59;19.20;99.90
3312;DHT22;1668;49.648;8.570;2022-09-13T10:22:28;19.30;99.90
3312;DHT22;1668;49.648;8.570;2022-09-13T10:25:06;19.40;99.90
3312;DHT22;1668;49.648;8.570;2022-09-13T10:27:42;19.30;99.90
3312;DHT22;1668;49.648;8.570;2022-09-13T10:30:29;19.50;99.90
3312;DHT22;1668;49.648;8.570;2022-09-13T10:32:58;19.50;99.90
3312;DHT22;1668;49.648;8.570;2022-09-13T10:35:26;19.60;99.90
3312;DHT22;1668;49.648;8.570;2022-09-13T10:37:54;19.70;99.90
3312;DHT22;1668;49.648;8.570;2022-09-13T10:40:25;19.70;99.90
3312;DHT22;1668;49.648;8.570;2022-09-13T10:42:56;19.80;99.90
3312;DHT22;1668;49.648;8.570;2022-09-13T10:45:25;19.80;99.90
3312;DHT22;1668;49.648;8.570;2022-09-13T10:47:54;19.80;99.90
3312;DHT22;1668;49.648;8.570;2022-09-13T10:50:25;19.90;99.90
3312;DHT22;1668;49.648;8.570;2022-09-13T10:52:53;19.90;99.90
3312;DHT22;1668;49.648;8.570;2022-09-13T10:55:27;20.00;99.90
3312;DHT22;1668;49.648;8.570;2022-09-13T10:58:12;20.00;99.90
3312;DHT22;1668;49.648;8.570;2022-09-13T11:01:01;20.00;99.90
3312;DHT22;1668;49.648;8.570;2022-09-13T11:03:54;20.00;99.90
3312;DHT22;1668;49.648;8.570;2022-09-13T11:06:29;20.00;99.90
3312;DHT22;1668;49.648;8.570;2022-09-13T11:09:03;20.00;99.90
3312;DHT22;1668;49.648;8.570;2022-09-13T11:11:39;20.10;99.90
3312;DHT22;1668;49.648;8.570;2022-09-13T11:14:21;20.10;99.90
3312;DHT22;1668;49.648;8.570;2022-09-13T11:16:58;20.10;99.90
3312;DHT22;1668;49.648;8.570;2022-09-13T11:19:48;20.10;99.90
3312;DHT22;1668;49.648;8.570;2022-09-13T11:22:27;20.10;99.90
3312;DHT22;1668;49.648;8.570;2022-09-13T11:25:06;20.10;99.90
3312;DHT22;1668;49.648;8.570;2022-09-13T11:27:43;20.10;99.90
3312;DHT22;1668;49.648;8.570;2022-09-13T11:30:17;20.10;99.90
3312;DHT22;1668;49.648;8.570;2022-09-13T11:32:55;20.00;99.90
3312;DHT22;1668;49.648;8.570;2022-09-13T11:35:35;20.00;99.90
3312;DHT22;1668;49.648;8.570;2022-09-13T11:38:21;20.00;99.90
3312;DHT22;1668;49.648;8.570;2022-09-13T11:40:58;20.00;99.90
3312;DHT22;1668;49.648;8.570;2022-09-13T11:43:37;19.90;99.90
3312;DHT22;1668;49.648;8.570;2022-09-13T11:46:13;19.90;99.90
3312;DHT22;1668;49.648;8.570;2022-09-13T11:48:57;19.90;99.90
3312;DHT22;1668;49.648;8.570;2022-09-13T11:51:36;19.90;99.90
3312;DHT22;1668;49.648;8.570;2022-09-13T11:54:17;19.90;99.90
3312;DHT22;1668;49.648;8.570;2022-09-13T11:56:53;19.90;99.90
3312;DHT22;1668;49.648;8.570;2022-09-13T11:59:28;20.00;99.90
3312;DHT22;1668;49.648;8.570;2022-09-13T12:02:04;20.00;99.90
3312;DHT22;1668;49.648;8.570;2022-09-13T12:04:43;20.00;99.90
3312;DHT22;1668;49.648;8.570;2022-09-13T12:07:17;20.00;99.90
3312;DHT22;1668;49.648;8.570;2022-09-13T12:09:50;20.00;99.90
3312;DHT22;1668;49.648;8.570;2022-09-13T12:12:17;20.10;99.90
3312;DHT22;1668;49.648;8.570;2022-09-13T12:14:51;20.10;99.90
3312;DHT22;1668;49.648;8.570;2022-09-13T12:17:26;20.10;99.90
3312;DHT22;1668;49.648;8.570;2022-09-13T12:19:57;20.10;99.90
3312;DHT22;1668;49.648;8.570;2022-09-13T12:22:29;20.10;99.90
3312;DHT22;1668;49.648;8.570;2022-09-13T12:25:01;20.10;99.90
3312;DHT22;1668;49.648;8.570;2022-09-13T12:27:35;20.20;99.90
3312;DHT22;1668;49.648;8.570;2022-09-13T12:30:05;20.20;99.90
3312;DHT22;1668;49.648;8.570;2022-09-13T12:32:37;20.20;99.90
3312;DHT22;1668;49.648;8.570;2022-09-13T12:35:06;20.20;99.90
3312;DHT22;1668;49.648;8.570;2022-09-13T12:37:49;20.20;99.90
3312;DHT22;1668;49.648;8.570;2022-09-13T12:40:33;20.30;99.90
3312;DHT22;1668;49.648;8.570;2022-09-13T12:49:22;20.50;99.90
3312;DHT22;1668;49.648;8.570;2022-09-13T12:52:07;20.50;99.90
3312;DHT22;1668;49.648;8.570;2022-09-13T12:54:49;20.50;99.90
3312;DHT22;1668;49.648;8.570;2022-09-13T12:57:27;20.60;99.90
3312;DHT22;1668;49.648;8.570;2022-09-13T13:00:10;20.70;99.90
3312;DHT22;1668;49.648;8.570;2022-09-13T13:02:41;20.70;99.90
3312;DHT22;1668;49.648;8.570;2022-09-13T13:05:23;20.80;99.90
3312;DHT22;1668;49.648;8.570;2022-09-13T13:07:53;20.80;99.90
3312;DHT22;1668;49.648;8.570;2022-09-13T13:10:27;20.90;99.90
3312;DHT22;1668;49.648;8.570;2022-09-13T13:12:55;20.90;99.90
3312;DHT22;1668;49.648;8.570;2022-09-13T13:15:56;21.00;99.90
3312;DHT22;1668;49.648;8.570;2022-09-13T13:18:27;21.00;99.90
3312;DHT22;1668;49.648;8.570;2022-09-13T13:21:32;21.10;99.90
3312;DHT22;1668;49.648;8.570;2022-09-13T13:24:36;21.30;99.90
3312;DHT22;1668;49.648;8.570;2022-09-13T13:27:35;21.40;99.90
3312;DHT22;1668;49.648;8.570;2022-09-13T13:33:26;21.60;99.90
3312;DHT22;1668;49.648;8.570;2022-09-13T13:35:53;21.70;99.90
3312;DHT22;1668;49.648;8.570;2022-09-13T13:38:40;21.80;99.90
3312;DHT22;1668;49.648;8.570;2022-09-13T13:44:55;22.00;99.90
3312;DHT22;1668;49.648;8.570;2022-09-13T13:47:53;22.10;99.90
3312;DHT22;1668;49.648;8.570;2022-09-13T13:50:20;22.10;99.90
3312;DHT22;1668;49.648;8.570;2022-09-13T13:52:53;22.10;99.90
3312;DHT22;1668;49.648;8.570;2022-09-13T13:55:43;22.10;99.90
3312;DHT22;1668;49.648;8.570;2022-09-13T13:58:36;22.10;99.90
3312;DHT22;1668;49.648;8.570;2022-09-13T14:01:13;22.10;99.90
3312;DHT22;1668;49.648;8.570;2022-09-13T14:04:08;22.00;99.90
3312;DHT22;1668;49.648;8.570;2022-09-13T14:06:46;22.00;99.90
3312;DHT22;1668;49.648;8.570;2022-09-13T14:09:27;22.00;99.90
3312;DHT22;1668;49.648;8.570;2022-09-13T14:12:17;22.00;99.90
3312;DHT22;1668;49.648;8.570;2022-09-13T14:14:57;22.00;99.90
3312;DHT22;1668;49.648;8.570;2022-09-13T14:20:30;22.10;99.90
3312;DHT22;1668;49.648;8.570;2022-09-13T14:23:16;22.10;99.90
3312;DHT22;1668;49.648;8.570;2022-09-13T14:25:44;22.10;99.90
3312;DHT22;1668;49.648;8.570;2022-09-13T14:28:16;22.10;99.90
3312;DHT22;1668;49.648;8.570;2022-09-13T14:30:45;22.00;99.90
3312;DHT22;1668;49.648;8.570;2022-09-13T14:33:32;22.10;99.90
3312;DHT22;1668;49.648;8.570;2022-09-13T14:36:03;22.00;99.90
3312;DHT22;1668;49.648;8.570;2022-09-13T14:38:32;22.00;99.90
3312;DHT22;1668;49.648;8.570;2022-09-13T14:41:09;22.00;99.90
3312;DHT22;1668;49.648;8.570;2022-09-13T14:43:38;22.00;99.90
3312;DHT22;1668;49.648;8.570;2022-09-13T14:46:08;22.00;99.90
3312;DHT22;1668;49.648;8.570;2022-09-13T14:48:39;22.00;99.90
3312;DHT22;1668;49.648;8.570;2022-09-13T14:51:13;21.90;99.90
3312;DHT22;1668;49.648;8.570;2022-09-13T14:53:42;21.90;99.90
3312;DHT22;1668;49.648;8.570;2022-09-13T14:56:15;22.00;99.90
3312;DHT22;1668;49.648;8.570;2022-09-13T14:58:48;21.90;99.90
3312;DHT22;1668;49.648;8.570;2022-09-13T15:01:18;21.90;99.90
3312;DHT22;1668;49.648;8.570;2022-09-13T15:10:47;22.00;99.90
3312;DHT22;1668;49.648;8.570;2022-09-13T15:13:15;22.00;99.90
3312;DHT22;1668;49.648;8.570;2022-09-13T15:15:43;22.00;99.90
3312;DHT22;1668;49.648;8.570;2022-09-13T15:18:23;22.00;99.90
3312;DHT22;1668;49.648;8.570;2022-09-13T15:20:52;22.10;99.90
3312;DHT22;1668;49.648;8.570;2022-09-13T15:23:22;22.10;99.90
3312;DHT22;1668;49.648;8.570;2022-09-13T15:25:52;22.10;99.90
3312;DHT22;1668;49.648;8.570;2022-09-13T15:28:22;22.10;99.90
3312;DHT22;1668;49.648;8.570;2022-09-13T15:30:50;22.10;99.90
3312;DHT22;1668;49.648;8.570;2022-09-13T15:33:26;22.10;99.90
3312;DHT22;1668;49.648;8.570;2022-09-13T15:36:12;22.10;99.90
3312;DHT22;1668;49.648;8.570;2022-09-13T15:38:57;22.10;99.90
3312;DHT22;1668;49.648;8.570;2022-09-13T15:41:29;22.10;99.90
3312;DHT22;1668;49.648;8.570;2022-09-13T15:43:58;22.10;99.90
3312;DHT22;1668;49.648;8.570;2022-09-13T15:46:25;22.00;99.90
3312;DHT22;1668;49.648;8.570;2022-09-13T15:48:54;22.00;99.90
3312;DHT22;1668;49.648;8.570;2022-09-13T15:51:21;22.00;99.90
3312;DHT22;1668;49.648;8.570;2022-09-13T15:53:48;22.00;99.90
3312;DHT22;1668;49.648;8.570;2022-09-13T15:56:17;22.00;99.90
3312;DHT22;1668;49.648;8.570;2022-09-13T15:58:46;22.00;99.90
3312;DHT22;1668;49.648;8.570;2022-09-13T16:01:15;22.00;99.90
3312;DHT22;1668;49.648;8.570;2022-09-13T16:03:42;22.00;99.90
3312;DHT22;1668;49.648;8.570;2022-09-13T16:06:09;22.00;99.90
3312;DHT22;1668;49.648;8.570;2022-09-13T16:08:36;22.10;99.90
3312;DHT22;1668;49.648;8.570;2022-09-13T16:11:03;22.00;99.90
3312;DHT22;1668;49.648;8.570;2022-09-13T16:13:30;22.10;99.90
3312;DHT22;1668;49.648;8.570;2022-09-13T16:15:59;22.10;99.90
3312;DHT22;1668;49.648;8.570;2022-09-13T16:18:26;22.10;99.90
3312;DHT22;1668;49.648;8.570;2022-09-13T16:20:52;22.00;99.90
3312;DHT22;1668;49.648;8.570;2022-09-13T16:23:19;22.00;99.90
3312;DHT22;1668;49.648;8.570;2022-09-13T16:25:46;22.00;99.90
3312;DHT22;1668;49.648;8.570;2022-09-13T16:28:16;22.00;99.90
3312;DHT22;1668;49.648;8.570;2022-09-13T16:30:45;22.00;99.90
3312;DHT22;1668;49.648;8.570;2022-09-13T16:33:13;22.00;99.90
3312;DHT22;1668;49.648;8.570;2022-09-13T16:35:40;22.00;99.90
3312;DHT22;1668;49.648;8.570;2022-09-13T16:38:08;21.90;99.90
3312;DHT22;1668;49.648;8.570;2022-09-13T16:40:37;21.90;99.90
3312;DHT22;1668;49.648;8.570;2022-09-13T16:43:04;21.90;99.90
3312;DHT22;1668;49.648;8.570;2022-09-13T16:45:31;21.90;99.90
3312;DHT22;1668;49.648;8.570;2022-09-13T16:47:58;21.80;99.90
3312;DHT22;1668;49.648;8.570;2022-09-13T16:50:26;21.80;99.90
3312;DHT22;1668;49.648;8.570;2022-09-13T16:52:53;21.80;99.90
3312;DHT22;1668;49.648;8.570;2022-09-13T16:55:20;21.80;99.90
3312;DHT22;1668;49.648;8.570;2022-09-13T16:57:46;21.80;99.90
3312;DHT22;1668;49.648;8.570;2022-09-13T17:00:17;21.70;99.90
3312;DHT22;1668;49.648;8.570;2022-09-13T17:02:44;21.70;99.90